Reily, Ohio
Current Conditions -  °F | °C
As of 3:55 PM on Saturday 25 Oct 2014 (Local Time) from KI67 Reporting Station
Clear Clear  
Wind Chill: 23°   Ceiling: Unl
Heat Index: 23°   Visibility: 10mi
Dew Point: 12°   Wind: 10mph
Humidity: 50%   Direction: 280°W
Pressure: 29.91"   Gusts: NA
Location:  39.4851°N, 84.7501°W
Report Text: KI67 251955Z AUTO 28009KT 10SM CLR 23/12 A2991 RMK AO1
Loading
Personal Weather Stations






























Interactive Weather Map
Tropical Storm Tracking
New forecast layout! Learn more

10-Day Weather Forecast

Advertisements
Track Severe Weather on mobile